Time;durP1;ratioP1;P1;durP2;ratioP2;P2;SDS_P1;SDS_P2;PMS_P1;PMS_P2;Temp;Humidity;BMP_temperature;BMP_pressure;BME280_temperature;BME280_humidity;BME280_pressure;Samples;Min_cycle;Max_cycle;Signal;HPM_P1;HPM_P2
2022/12/20 00:00:30;;;;;;;0.50;0.50;;;;;;;4.07;82.64;97428.19;29395;221;63016;-60
2022/12/20 00:01:07;;;;;;;0.60;0.60;;;;;;;4.06;82.69;97426.53;29394;291;64009;-70
2022/12/20 00:01:38;;;;;;;0.60;0.60;;;;;;;4.06;82.73;97421.19;29395;220;63009;-59
2022/12/20 00:02:10;;;;;;;0.57;0.57;;;;;;;4.04;82.37;97416.84;29395;224;63005;-59
2022/12/20 00:02:42;;;;;;;0.50;0.50;;;;;;;4.04;82.91;97419.53;29395;232;63009;-59
2022/12/20 00:03:13;;;;;;;0.52;0.52;;;;;;;4.04;82.49;97416.84;29395;202;63005;-66
2022/12/20 00:03:45;;;;;;;0.60;0.60;;;;;;;4.06;82.48;97415.81;29395;213;63009;-66
2022/12/20 00:04:16;;;;;;;0.60;0.60;;;;;;;4.06;82.22;97421.19;29395;234;63004;-65
2022/12/20 00:04:48;;;;;;;0.60;0.60;;;;;;;4.03;82.54;97417.91;29394;312;64013;-59
2022/12/20 00:05:20;;;;;;;0.60;0.60;;;;;;;4.02;82.35;97418.97;29395;303;63004;-59
2022/12/20 00:05:51;;;;;;;0.60;0.60;;;;;;;4.01;82.84;97414.66;29395;224;63014;-59
2022/12/20 00:06:23;;;;;;;0.50;0.50;;;;;;;3.98;82.48;97415.13;29395;226;63004;-69
2022/12/20 00:06:55;;;;;;;0.60;0.60;;;;;;;3.95;82.62;97410.22;29394;196;64013;-66
2022/12/20 00:07:26;;;;;;;0.60;0.60;;;;;;;3.92;82.69;97421.44;29395;261;63004;-58
2022/12/20 00:07:58;;;;;;;0.60;0.60;;;;;;;3.88;82.57;97409.53;29395;222;63020;-60
2022/12/20 00:08:29;;;;;;;0.65;0.65;;;;;;;3.84;82.63;97413.75;29395;221;63005;-69
2022/12/20 00:09:05;;;;;;;0.60;0.60;;;;;;;3.81;82.85;97408.84;29395;232;63009;-59
2022/12/20 00:09:37;;;;;;;0.60;0.60;;;;;;;3.79;83.45;97410.97;29394;207;64009;-59
2022/12/20 00:10:09;;;;;;;0.60;0.60;;;;;;;3.77;83.59;97406.91;29395;226;63005;-59
2022/12/20 00:10:42;;;;;;;0.55;0.55;;;;;;;3.75;83.63;97409.81;29395;275;63005;-59
2022/12/20 00:11:14;;;;;;;0.60;0.60;;;;;;;3.74;83.63;97413.56;29395;212;63009;-60
2022/12/20 00:11:46;;;;;;;0.60;0.60;;;;;;;3.66;83.66;97400.50;29395;220;63004;-59
2022/12/20 00:12:17;;;;;;;0.60;0.60;;;;;;;3.72;83.73;97410.28;29394;215;64013;-60
2022/12/20 00:12:48;;;;;;;0.60;0.60;;;;;;;3.71;83.64;97411.34;29395;220;63004;-60
2022/12/20 00:13:20;;;;;;;1.12;1.12;;;;;;;3.70;83.84;97407.03;29395;258;63009;-59
2022/12/20 00:13:53;;;;;;;0.60;0.60;;;;;;;3.67;83.83;97407.50;29395;228;63004;-59
2022/12/20 00:14:25;;;;;;;0.60;0.60;;;;;;;3.65;83.62;97404.22;29395;232;63008;-69
2022/12/20 00:14:57;;;;;;;0.60;0.60;;;;;;;3.61;83.71;97403.88;29394;249;64008;-61
2022/12/20 00:15:28;;;;;;;0.50;0.50;;;;;;;3.60;84.38;97401.44;29395;197;63009;-59
2022/12/20 00:16:11;;;;;;;0.60;0.60;;;;;;;3.59;84.08;97405.16;29395;242;63005;-60
2022/12/20 00:16:42;;;;;;;0.60;0.60;;;;;;;3.58;84.54;97398.16;29395;212;63009;-59
2022/12/20 00:17:13;;;;;;;0.60;0.60;;;;;;;3.56;84.56;97401.09;29395;206;63005;-63
2022/12/20 00:17:45;;;;;;;0.60;0.60;;;;;;;3.55;84.55;97401.31;29395;251;63009;-59
2022/12/20 00:18:16;;;;;;;0.60;0.60;;;;;;;3.53;84.31;97406.09;29395;199;63005;-59
2022/12/20 00:18:51;;;;;;;0.60;0.60;;;;;;;3.51;84.68;97395.59;29395;252;63009;-65
2022/12/20 00:19:26;;;;;;;0.60;0.60;;;;;;;3.51;84.65;97400.16;29395;210;63004;-59
2022/12/20 00:19:57;;;;;;;0.60;0.60;;;;;;;3.50;84.99;97395.84;29394;196;64013;-59
2022/12/20 00:20:29;;;;;;;0.50;0.50;;;;;;;3.50;84.83;97390.47;29395;208;63004;-60
2022/12/20 00:21:02;;;;;;;0.60;0.60;;;;;;;3.49;84.80;97396.88;29395;210;63009;-60
2022/12/20 00:21:34;;;;;;;0.60;0.60;;;;;;;3.48;84.88;97396.06;29394;334;64009;-68
2022/12/20 00:22:06;;;;;;;0.60;0.60;;;;;;;3.48;85.27;97400.63;29395;388;63008;-59
2022/12/20 00:22:38;;;;;;;0.57;0.57;;;;;;;3.48;84.91;97395.25;29395;204;63005;-58
2022/12/20 00:23:09;;;;;;;0.60;0.60;;;;;;;3.47;85.26;97388.25;29395;223;63009;-64
2022/12/20 00:23:41;;;;;;;0.60;0.60;;;;;;;3.46;84.92;97389.34;29395;228;63005;-59
2022/12/20 00:24:12;;;;;;;0.60;0.60;;;;;;;3.45;85.30;97387.72;29395;219;63009;-69
2022/12/20 00:24:44;;;;;;;0.60;0.60;;;;;;;3.44;85.31;97388.75;29395;357;63005;-60
2022/12/20 00:25:15;;;;;;;0.60;0.60;;;;;;;3.43;85.51;97384.44;29395;217;63009;-60
2022/12/20 00:25:46;;;;;;;0.60;0.60;;;;;;;3.41;85.26;97382.00;29395;203;63005;-66
2022/12/20 00:26:23;;;;;;;0.60;0.60;;;;;;;3.41;85.34;97379.31;29395;324;63009;-60
2022/12/20 00:26:55;;;;;;;0.60;0.60;;;;;;;3.39;85.15;97372.53;29394;220;64009;-59
2022/12/20 00:27:26;;;;;;;0.60;0.60;;;;;;;3.37;85.30;97373.59;29395;237;63009;-60
2022/12/20 00:27:57;;;;;;;0.55;0.55;;;;;;;3.37;85.49;97378.97;29395;196;63004;-61
2022/12/20 00:28:31;;;;;;;0.55;0.55;;;;;;;3.40;85.57;97371.50;29395;212;63019;-68
2022/12/20 00:29:03;;;;;;;0.60;0.60;;;;;;;3.41;85.53;97365.91;29395;215;63004;-61
2022/12/20 00:29:34;;;;;;;0.50;0.50;;;;;;;3.44;85.65;97369.97;29395;259;63008;-61
2022/12/20 00:30:07;;;;;;;0.60;0.60;;;;;;;3.48;85.04;97371.94;29395;199;63004;-61
2022/12/20 00:30:38;;;;;;;0.60;0.60;;;;;;;3.52;85.21;97366.91;29395;365;63021;-59
2022/12/20 00:31:12;;;;;;;0.60;0.60;;;;;;;3.56;84.48;97373.44;29395;225;63005;-60
2022/12/20 00:31:44;;;;;;;0.60;0.60;;;;;;;3.55;84.37;97369.94;29395;227;63005;-59
2022/12/20 00:32:16;;;;;;;0.62;0.62;;;;;;;3.56;84.54;97378.81;29394;214;64009;-59
2022/12/20 00:32:48;;;;;;;0.60;0.60;;;;;;;3.53;84.62;97381.97;29395;258;63009;-67
2022/12/20 00:33:20;;;;;;;0.60;0.60;;;;;;;3.52;84.85;97377.63;29395;251;63005;-59
2022/12/20 00:33:53;;;;;;;0.60;0.60;;;;;;;3.50;84.74;97379.75;29395;199;63009;-66
2022/12/20 00:34:28;;;;;;;0.60;0.60;;;;;;;3.47;84.53;97389.06;29395;241;63004;-60
2022/12/20 00:34:59;;;;;;;0.60;0.60;;;;;;;3.47;85.16;97380.22;29395;273;63009;-59
2022/12/20 00:35:30;;;;;;;0.80;0.80;;;;;;;3.49;84.90;97380.78;29395;314;63004;-60
2022/12/20 00:36:03;;;;;;;0.60;0.60;;;;;;;3.51;84.76;97384.06;29394;284;64013;-59
2022/12/20 00:36:34;;;;;;;0.60;0.60;;;;;;;3.53;84.83;97379.28;29395;228;63004;-60
2022/12/20 00:37:06;;;;;;;0.60;0.60;;;;;;;3.49;84.37;97378.94;29394;202;64005;-67
2022/12/20 00:37:38;;;;;;;0.60;0.60;;;;;;;3.52;84.41;97385.69;29395;197;63004;-62
2022/12/20 00:38:09;;;;;;;0.60;0.60;;;;;;;3.52;84.55;97377.63;29395;231;63009;-61
2022/12/20 00:38:44;;;;;;;0.60;0.60;;;;;;;3.52;84.37;97383.81;29395;241;63005;-64
2022/12/20 00:39:15;;;;;;;0.60;0.60;;;;;;;3.50;84.69;97374.38;29395;230;63009;-60
2022/12/20 00:39:46;;;;;;;0.60;0.60;;;;;;;3.53;84.59;97373.91;29394;291;64009;-61
2022/12/20 00:40:18;;;;;;;0.60;0.60;;;;;;;3.55;84.80;97379.84;29395;243;63009;-59
2022/12/20 00:41:08;;;;;;;0.60;0.60;;;;;;;3.53;84.56;97369.34;29395;347;63005;-59
2022/12/20 00:41:39;;;;;;;0.62;0.62;;;;;;;3.55;84.69;97371.81;29395;398;63009;-60
2022/12/20 00:42:12;;;;;;;1.25;1.25;;;;;;;3.55;84.84;97371.81;29394;202;64009;-61
2022/12/20 00:42:43;;;;;;;0.60;0.60;;;;;;;3.55;84.62;97369.94;29395;225;63009;-61
2022/12/20 00:43:14;;;;;;;1.05;1.05;;;;;;;3.57;84.54;97358.97;29395;206;63004;-59
2022/12/20 00:43:46;;;;;;;1.17;1.17;;;;;;;3.58;84.76;97364.09;29395;198;63008;-61
2022/12/20 00:44:17;;;;;;;0.90;0.90;;;;;;;3.59;84.63;97370.28;29395;210;63004;-69
2022/12/20 00:44:48;;;;;;;0.60;0.60;;;;;;;3.59;84.75;97362.22;29395;202;63008;-59
2022/12/20 00:45:20;;;;;;;1.15;1.15;;;;;;;3.58;84.62;97376.69;29395;198;63005;-59
2022/12/20 00:45:51;;;;;;;0.60;0.60;;;;;;;3.58;84.70;97372.16;29395;269;63009;-59
2022/12/20 00:46:23;;;;;;;0.57;0.57;;;;;;;3.57;84.71;97373.19;29395;254;63005;-60
2022/12/20 00:46:54;;;;;;;0.60;0.60;;;;;;;3.58;84.63;97372.16;29394;216;64013;-61
2022/12/20 00:47:26;;;;;;;0.60;0.60;;;;;;;3.57;84.38;97377.75;29394;231;64009;-58
2022/12/20 00:47:58;;;;;;;0.60;0.60;;;;;;;3.57;84.46;97375.06;29394;203;64013;-60
2022/12/20 00:48:30;;;;;;;1.15;1.15;;;;;;;3.54;84.57;97380.91;29395;246;63005;-66
2022/12/20 00:49:01;;;;;;;0.60;0.60;;;;;;;3.53;84.86;97387.31;29395;206;63024;-66
2022/12/20 00:49:33;;;;;;;0.60;0.60;;;;;;;3.49;84.37;97383.47;29395;222;63004;-59
2022/12/20 00:50:06;;;;;;;0.82;0.82;;;;;;;3.47;84.91;97380.22;29395;210;63009;-60
2022/12/20 00:50:37;;;;;;;0.60;0.60;;;;;;;3.50;84.45;97377.06;29395;206;63004;-60
2022/12/20 00:51:12;;;;;;;0.60;0.60;;;;;;;3.52;84.71;97383.00;29395;213;63008;-65
2022/12/20 00:51:45;;;;;;;0.60;0.60;;;;;;;3.53;84.30;97376.59;29395;196;63009;-59
2022/12/20 00:52:16;;;;;;;0.60;0.60;;;;;;;3.52;84.36;97383.00;29395;203;63009;-59
2022/12/20 00:52:49;;;;;;;0.70;0.70;;;;;;;3.51;84.34;97386.75;29395;212;63005;-59
2022/12/20 00:53:21;;;;;;;0.60;0.60;;;;;;;3.52;84.43;97388.38;29394;263;64014;-61
2022/12/20 00:53:53;;;;;;;0.70;0.70;;;;;;;3.50;84.36;97385.09;29395;230;63008;-61
2022/12/20 00:54:25;;;;;;;0.60;0.60;;;;;;;3.52;84.57;97383.81;29395;229;63009;-59
2022/12/20 00:54:56;;;;;;;0.52;0.52;;;;;;;3.52;84.16;97383.00;29395;209;63005;-66
2022/12/20 00:55:27;;;;;;;0.70;0.70;;;;;;;3.51;84.45;97379.50;29395;313;63009;-58
2022/12/20 00:55:59;;;;;;;0.60;0.60;;;;;;;3.56;84.13;97374.25;29395;207;63005;-59
2022/12/20 00:56:30;;;;;;;0.60;0.60;;;;;;;3.56;84.05;97373.44;29395;225;63009;-72
2022/12/20 00:57:01;;;;;;;0.50;0.50;;;;;;;3.57;83.80;97369.69;29395;250;63004;-70
2022/12/20 00:57:35;;;;;;;0.95;0.95;;;;;;;3.55;83.95;97361.06;29395;287;63014;-71
2022/12/20 00:58:10;;;;;;;0.50;0.50;;;;;;;3.53;83.72;97363.19;29395;221;63004;-60
2022/12/20 00:58:42;;;;;;;0.60;0.60;;;;;;;3.49;84.11;97362.81;29394;294;64013;-60
2022/12/20 00:59:15;;;;;;;0.60;0.60;;;;;;;3.47;83.90;97358.75;29394;218;64008;-60
2022/12/20 00:59:46;;;;;;;0.60;0.60;;;;;;;3.47;84.10;97366.78;29395;212;63009;-68
2022/12/20 01:00:18;;;;;;;0.70;0.70;;;;;;;3.44;83.97;97361.94;29395;273;63005;-60
2022/12/20 01:00:50;;;;;;;0.60;0.60;;;;;;;3.41;84.21;97365.09;29395;202;63009;-61
2022/12/20 01:01:25;;;;;;;0.60;0.60;;;;;;;3.37;84.15;97360.19;29395;206;63005;-62
2022/12/20 01:01:56;;;;;;;0.60;0.60;;;;;;;3.35;84.82;97362.28;29395;287;63009;-60
2022/12/20 01:02:27;;;;;;;0.60;0.60;;;;;;;3.33;84.44;97360.88;29395;214;63005;-61
2022/12/20 01:03:08;;;;;;;0.70;0.70;;;;;;;3.34;84.95;97360.66;29395;215;63018;-58
2022/12/20 01:03:40;;;;;;;0.70;0.70;;;;;;;3.36;84.74;97365.78;29416;227;64009;-60
2022/12/20 01:04:11;;;;;;;0.60;0.60;;;;;;;3.35;84.97;97366.84;29395;207;63009;-61
2022/12/20 01:04:42;;;;;;;0.60;0.60;;;;;;;3.36;84.67;97361.22;29395;198;63004;-60
2022/12/20 01:05:14;;;;;;;0.60;0.60;;;;;;;3.35;84.81;97362.28;29395;202;63004;-60
2022/12/20 01:06:00;;;;;;;0.60;0.60;;;;;;;3.34;84.73;97359.84;29395;216;63004;-60
2022/12/20 01:06:31;;;;;;;1.15;1.15;;;;;;;3.37;85.06;97360.19;29395;218;63008;-59
2022/12/20 01:07:03;;;;;;;0.60;0.60;;;;;;;3.36;84.64;97369.28;29395;316;63005;-59
2022/12/20 01:07:35;;;;;;;0.70;0.70;;;;;;;3.36;84.95;97368.47;29395;203;63009;-59
2022/12/20 01:08:11;;;;;;;0.60;0.60;;;;;;;3.33;85.05;97375.12;29395;258;63005;-71
2022/12/20 01:08:43;;;;;;;0.60;0.60;;;;;;;3.27;85.17;97376.03;29394;228;64013;-59
2022/12/20 01:09:14;;;;;;;0.57;0.57;;;;;;;3.24;85.03;97373.84;29395;226;63005;-59
2022/12/20 01:09:45;;;;;;;0.60;0.60;;;;;;;3.21;85.15;97385.03;29395;202;63023;-61
2022/12/20 01:10:41;;;;;;;0.60;0.60;;;;;;;3.15;85.44;97388.63;29395;261;63005;-61
2022/12/20 01:11:18;;;;;;;1.85;1.77;;;;;;;3.11;85.87;97384.81;29395;243;63009;-60
2022/12/20 01:11:50;;;;;;;0.57;0.57;;;;;;;3.11;85.90;97371.41;29395;208;63004;-59
2022/12/20 01:12:22;;;;;;;0.60;0.60;;;;;;;3.13;85.69;97368.47;29394;324;64013;-59
2022/12/20 01:12:53;;;;;;;0.60;0.60;;;;;;;3.16;85.84;97378.72;29395;198;63008;-59
2022/12/20 01:13:26;;;;;;;0.60;0.60;;;;;;;3.16;86.06;97379.53;29395;301;63009;-59
2022/12/20 01:14:01;;;;;;;5.37;2.60;;;;;;;3.19;85.69;97379.06;29395;209;63004;-59
2022/12/20 01:14:33;;;;;;;0.60;0.60;;;;;;;3.17;85.52;97375.81;29395;204;63008;-61
2022/12/20 01:15:05;;;;;;;0.60;0.60;;;;;;;3.16;86.02;97384.91;29395;197;63005;-60
2022/12/20 01:15:37;;;;;;;0.70;0.70;;;;;;;3.12;85.69;97386.41;29395;217;63009;-60
2022/12/20 01:16:12;;;;;;;0.52;0.52;;;;;;;3.10;85.89;97390.41;29395;207;63005;-60
2022/12/20 01:16:46;;;;;;;0.60;0.60;;;;;;;3.08;86.30;97398.69;29395;216;63009;-60
2022/12/20 01:17:18;;;;;;;0.60;0.60;;;;;;;3.08;86.11;97389.81;29394;205;64009;-59
2022/12/20 01:17:50;;;;;;;0.60;0.60;;;;;;;3.07;86.46;97399.72;29395;379;63009;-60
2022/12/20 01:18:25;;;;;;;0.60;0.60;;;;;;;3.07;86.41;97397.06;29395;278;63005;-61
2022/12/20 01:18:57;;;;;;;0.65;0.65;;;;;;;3.07;86.64;97391.69;29395;204;63016;-61
2022/12/20 01:19:28;;;;;;;1.15;1.15;;;;;;;3.07;86.49;97398.91;29395;226;63004;-60
2022/12/20 01:19:59;;;;;;;0.60;0.60;;;;;;;3.08;86.93;97393.31;29394;230;64013;-60
2022/12/20 01:20:31;;;;;;;1.08;1.08;;;;;;;3.14;86.63;97396.91;29395;217;63004;-60
2022/12/20 01:21:07;;;;;;;0.60;0.60;;;;;;;3.19;86.51;97395.16;29395;227;63009;-59
2022/12/20 01:21:43;;;;;;;0.60;0.60;;;;;;;3.21;86.04;97393.06;29395;197;63009;-60
2022/12/20 01:22:15;;;;;;;0.82;0.82;;;;;;;3.27;86.26;97397.50;29395;213;63009;-60
2022/12/20 01:22:46;;;;;;;1.95;1.65;;;;;;;3.34;85.72;97397.38;29395;280;63005;-60
2022/12/20 01:23:17;;;;;;;0.60;0.60;;;;;;;3.35;85.44;97388.28;29395;238;63009;-60
2022/12/20 01:23:54;;;;;;;0.60;0.60;;;;;;;3.36;85.33;97390.75;29395;216;63005;-60
2022/12/20 01:24:25;;;;;;;0.60;0.60;;;;;;;3.37;85.42;97397.75;29395;298;63009;-62
2022/12/20 01:24:56;;;;;;;0.62;0.62;;;;;;;3.31;85.36;97382.56;29394;230;64009;-61
2022/12/20 01:25:28;;;;;;;0.95;0.95;;;;;;;3.35;85.47;97390.97;29395;197;63009;-61
2022/12/20 01:26:01;;;;;;;0.70;0.70;;;;;;;3.35;84.94;97389.09;29395;210;63005;-60
2022/12/20 01:26:32;;;;;;;3.17;2.95;;;;;;;3.34;85.15;97386.66;29395;212;63009;-71
2022/12/20 01:27:03;;;;;;;1.40;1.40;;;;;;;3.33;85.25;97385.03;29395;218;63004;-62
2022/12/20 01:27:34;;;;;;;0.60;0.60;;;;;;;3.34;85.41;97387.47;29395;233;63009;-62
2022/12/20 01:28:06;;;;;;;0.60;0.60;;;;;;;3.33;85.25;97390.41;29395;208;63004;-60
2022/12/20 01:28:42;;;;;;;1.87;1.87;;;;;;;3.32;85.35;97380.72;29395;208;63009;-60
2022/12/20 01:29:14;;;;;;;0.60;0.60;;;;;;;3.29;85.13;97384.69;29395;283;63004;-61
2022/12/20 01:29:46;;;;;;;0.80;0.80;;;;;;;3.27;85.24;97389.47;29394;268;64014;-62
2022/12/20 01:30:17;;;;;;;0.55;0.55;;;;;;;3.25;85.35;97388.88;29395;239;63005;-60
2022/12/20 01:30:48;;;;;;;0.90;0.90;;;;;;;3.23;85.67;97385.59;29395;231;63009;-60
2022/12/20 01:31:20;;;;;;;0.50;0.50;;;;;;;3.22;85.70;97394.69;29395;237;63015;-60
2022/12/20 01:31:53;;;;;;;0.60;0.60;;;;;;;3.20;85.78;97388.75;29395;235;63009;-60
2022/12/20 01:32:24;;;;;;;0.60;0.60;;;;;;;3.17;85.76;97391.91;29395;207;63005;-61
2022/12/20 01:32:56;;;;;;;0.60;0.60;;;;;;;3.17;86.17;97386.53;29395;325;63009;-59
2022/12/20 01:33:27;;;;;;;0.60;0.60;;;;;;;3.17;86.28;97389.22;29395;213;63005;-60
2022/12/20 01:34:00;;;;;;;0.60;0.60;;;;;;;3.19;86.28;97391.66;29395;214;63009;-61
2022/12/20 01:34:31;;;;;;;0.60;0.60;;;;;;;3.18;86.19;97382.81;29395;294;63004;-60
2022/12/20 01:35:06;;;;;;;0.68;0.68;;;;;;;3.17;86.22;97385.72;29394;227;64003;-61
2022/12/20 01:35:38;;;;;;;0.60;0.60;;;;;;;3.17;86.29;97381.19;29395;252;63004;-59
2022/12/20 01:36:18;;;;;;;2.28;2.17;;;;;;;3.16;86.37;97384.91;29395;225;63009;-60
2022/12/20 01:36:49;;;;;;;0.60;0.60;;;;;;;3.16;86.26;97379.53;29395;211;63004;-60
2022/12/20 01:37:20;;;;;;;0.60;0.60;;;;;;;3.15;86.10;97375.22;29395;374;63005;-61
2022/12/20 01:37:51;;;;;;;0.60;0.60;;;;;;;3.14;86.54;97378.97;29395;204;63017;-59
2022/12/20 01:38:24;;;;;;;0.60;0.60;;;;;;;3.14;86.65;97384.31;29394;278;64014;-62
2022/12/20 01:39:04;;;;;;;0.60;0.60;;;;;;;3.14;86.57;97381.63;29395;222;63005;-60
2022/12/20 01:39:36;;;;;;;0.60;0.60;;;;;;;3.15;86.60;97383.28;29417;322;63009;-60
2022/12/20 01:40:09;;;;;;;0.60;0.60;;;;;;;3.16;86.88;97384.91;29395;208;63009;-59
2022/12/20 01:40:42;;;;;;;0.60;0.60;;;;;;;3.17;86.92;97381.19;29395;229;63009;-66
2022/12/20 01:41:17;;;;;;;0.60;0.60;;;;;;;3.17;86.51;97375.81;29394;240;64009;-61
2022/12/20 01:41:51;;;;;;;0.60;0.60;;;;;;;3.21;86.71;97376.97;29395;207;63009;-60
2022/12/20 01:42:23;;;;;;;2.85;2.75;;;;;;;3.21;86.67;97376.97;29395;265;63004;-59
2022/12/20 01:42:54;;;;;;;0.60;0.60;;;;;;;3.22;86.59;97377.78;29395;301;63009;-59
2022/12/20 01:44:03;;;;;;;0.68;0.68;;;;;;;3.28;86.20;97371.50;29395;221;63004;-59
2022/12/20 01:44:56;;;;;;;0.60;0.60;;;;;;;3.28;85.84;97372.31;29394;214;64013;-61
2022/12/20 01:45:29;;;;;;;0.60;0.60;;;;;;;3.29;85.80;97376.63;29395;203;63005;-60
2022/12/20 01:46:00;;;;;;;0.60;0.60;;;;;;;3.27;86.02;97380.59;29395;324;63009;-59
2022/12/20 01:46:35;;;;;;;1.12;1.12;;;;;;;3.25;85.74;97372.78;29395;228;63005;-61
2022/12/20 01:47:07;;;;;;;0.60;0.60;;;;;;;3.27;86.10;97372.53;29395;238;63009;-60
2022/12/20 01:47:39;;;;;;;0.60;0.60;;;;;;;3.33;86.24;97375.12;29395;214;63005;-60
2022/12/20 01:48:11;;;;;;;0.50;0.50;;;;;;;3.35;86.10;97373.00;29395;221;63009;-59
2022/12/20 01:48:51;;;;;;;0.60;0.60;;;;;;;3.36;85.86;97379.19;29395;216;63004;-60
2022/12/20 01:49:30;;;;;;;0.60;0.60;;;;;;;3.36;86.09;97379.19;29395;198;63009;-61
2022/12/20 01:50:03;;;;;;;0.70;0.70;;;;;;;3.41;85.71;97381.19;29394;210;64009;-60
2022/12/20 01:50:35;;;;;;;0.70;0.70;;;;;;;3.43;85.81;97379.91;29394;217;64013;-61
2022/12/20 01:51:08;;;;;;;0.60;0.60;;;;;;;3.44;85.67;97386.06;29394;203;64008;-59
2022/12/20 01:52:00;;;;;;;0.70;0.70;;;;;;;3.43;85.61;97379.91;29395;398;63009;-59
2022/12/20 01:52:44;;;;;;;0.82;0.82;;;;;;;3.45;85.38;97371.63;29396;199;63008;-61
2022/12/20 01:53:20;;;;;;;0.60;0.60;;;;;;;3.50;85.58;97374.38;29395;214;63009;-59
2022/12/20 01:53:59;;;;;;;0.60;0.60;;;;;;;3.49;85.46;97370.06;29395;225;63005;-62
2022/12/20 01:54:35;;;;;;;0.60;0.60;;;;;;;3.54;85.33;97375.53;29395;223;63009;-59
2022/12/20 01:55:18;;;;;;;0.60;0.60;;;;;;;3.56;84.58;97368.88;29395;226;63005;-60
2022/12/20 01:55:50;;;;;;;0.60;0.60;;;;;;;3.62;84.62;97377.88;29394;268;64013;-60
2022/12/20 01:56:27;;;;;;;0.60;0.60;;;;;;;3.62;84.48;97375.19;29395;202;63004;-61
2022/12/20 01:57:22;;;;;;;0.62;0.62;;;;;;;3.61;84.08;97381.59;29395;228;63009;-60
2022/12/20 01:58:05;;;;;;;0.60;0.60;;;;;;;3.60;83.88;97390.69;29395;252;63004;-62
2022/12/20 01:58:38;;;;;;;0.60;0.60;;;;;;;3.60;84.14;97380.78;29395;241;63008;-59
2022/12/20 01:59:13;;;;;;;0.60;0.60;;;;;;;3.59;84.04;97371.09;29395;201;63005;-61
2022/12/20 01:59:49;;;;;;;0.70;0.70;;;;;;;3.67;83.68;97369.94;29394;205;64014;-62
2022/12/20 02:00:21;;;;;;;0.70;0.70;;;;;;;3.73;83.16;97363.63;29395;219;63005;-60
2022/12/20 02:00:52;;;;;;;0.60;0.60;;;;;;;3.77;83.43;97351.34;29395;206;63009;-62
2022/12/20 02:01:26;;;;;;;0.60;0.60;;;;;;;3.79;83.27;97354.63;29395;204;63005;-62
2022/12/20 02:02:01;;;;;;;0.60;0.60;;;;;;;3.75;83.07;97350.78;29395;274;63010;-60
2022/12/20 02:02:33;;;;;;;1.02;1.02;;;;;;;3.71;82.79;97349.63;29395;209;63005;-60
2022/12/20 02:03:08;;;;;;;0.60;0.60;;;;;;;3.65;82.94;97361.28;29394;202;64013;-59
2022/12/20 02:03:41;;;;;;;8.38;7.68;;;;;;;3.60;83.57;97359.31;29395;225;63004;-60
2022/12/20 02:04:13;;;;;;;0.60;0.60;;;;;;;3.57;83.64;97359.78;29395;219;63009;-59
2022/12/20 02:04:45;;;;;;;0.60;0.60;;;;;;;3.54;83.35;97365.63;29395;276;63010;-60
2022/12/20 02:05:20;;;;;;;0.60;0.60;;;;;;;3.45;83.67;97360.88;29394;236;64013;-59
2022/12/20 02:05:52;;;;;;;0.70;0.70;;;;;;;3.46;84.08;97366.00;29395;210;63004;-61
2022/12/20 02:06:26;;;;;;;0.60;0.60;;;;;;;3.45;84.58;97364.37;29395;203;63008;-63
2022/12/20 02:06:59;;;;;;;0.90;0.90;;;;;;;3.52;84.15;97361.53;29395;240;63005;-61
2022/12/20 02:07:35;;;;;;;1.75;1.65;;;;;;;3.61;83.97;97352.09;29395;225;63022;-60
2022/12/20 02:08:08;;;;;;;0.60;0.60;;;;;;;3.63;83.46;97352.66;29395;198;63005;-61
2022/12/20 02:08:39;;;;;;;0.60;0.60;;;;;;;3.61;83.75;97349.41;29394;238;64013;-59
2022/12/20 02:09:10;;;;;;;1.12;1.12;;;;;;;3.62;83.57;97349.16;29395;198;63005;-60
2022/12/20 02:09:42;;;;;;;0.95;0.95;;;;;;;3.61;83.61;97344.03;29394;211;64013;-61
2022/12/20 02:10:16;;;;;;;0.60;0.60;;;;;;;3.61;83.37;97347.53;29395;208;63005;-61
2022/12/20 02:11:57;;;;;;;0.60;0.60;;;;;;;3.56;83.64;97349.28;29394;205;64013;-59
2022/12/20 02:12:42;;;;;;;0.50;0.50;;;;;;;3.53;83.47;97363.19;29395;219;63004;-60
2022/12/20 02:13:49;;;;;;;1.73;1.73;;;;;;;3.49;84.16;97351.28;29395;239;63009;-62
2022/12/20 02:15:09;;;;;;;0.60;0.60;;;;;;;3.51;83.58;97347.31;29395;220;63005;-60
2022/12/20 02:15:59;;;;;;;0.60;0.60;;;;;;;3.51;83.73;97352.69;29394;197;64014;-63
2022/12/20 02:16:41;;;;;;;0.62;0.62;;;;;;;3.53;84.21;97352.44;29395;254;63005;-62
2022/12/20 02:17:47;;;;;;;0.60;0.60;;;;;;;3.58;83.49;97356.06;29395;233;63009;-61
2022/12/20 02:18:40;;;;;;;0.70;0.70;;;;;;;3.55;83.62;97353.03;29394;295;64009;-63
2022/12/20 02:19:47;;;;;;;10.85;10.20;;;;;;;3.54;83.71;97354.06;29388;227;65004;-59
2022/12/20 02:20:45;;;;;;;0.70;0.70;;;;;;;3.58;83.61;97344.50;29373;240;63004;-61
2022/12/20 02:21:38;;;;;;;0.60;0.60;;;;;;;3.62;83.36;97342.97;29394;200;64013;-60
2022/12/20 02:22:35;;;;;;;1.15;1.15;;;;;;;3.65;83.16;97329.09;29395;238;63005;-60
2022/12/20 02:23:56;;;;;;;0.65;0.65;;;;;;;3.69;83.02;97336.44;29395;303;63009;-59
2022/12/20 02:25:15;;;;;;;0.88;0.88;;;;;;;3.63;82.81;97342.75;29395;211;63005;-61
2022/12/20 02:26:46;;;;;;;2.30;2.20;;;;;;;3.59;83.15;97348.81;29396;246;63008;-71
2022/12/20 02:28:09;;;;;;;7.72;7.07;;;;;;;3.60;83.20;97337.03;29394;229;64013;-61
2022/12/20 02:29:26;;;;;;;0.70;0.70;;;;;;;3.67;83.38;97343.09;29417;211;63004;-62
2022/12/20 02:30:21;;;;;;;0.60;0.60;;;;;;;3.64;83.31;97343.56;29394;255;64014;-61
2022/12/20 02:30:56;;;;;;;0.70;0.70;;;;;;;3.64;83.39;97335.50;29395;222;63007;-60
2022/12/20 02:31:36;;;;;;;1.40;1.40;;;;;;;3.66;83.52;97339.59;29395;199;63009;-60
2022/12/20 02:32:21;;;;;;;0.70;0.70;;;;;;;3.60;83.24;97331.66;29416;222;64009;-59
2022/12/20 02:33:02;;;;;;;0.77;0.77;;;;;;;3.63;83.68;97336.56;29395;235;63009;-62
2022/12/20 02:33:34;;;;;;;2.97;2.75;;;;;;;3.62;83.51;97335.75;29395;202;63004;-61
2022/12/20 02:34:08;;;;;;;0.70;0.70;;;;;;;3.64;83.21;97340.87;29395;225;63009;-59
2022/12/20 02:34:42;;;;;;;1.05;1.05;;;;;;;3.65;83.30;97339.81;29394;198;64022;-60
2022/12/20 02:35:18;;;;;;;1.10;1.10;;;;;;;3.67;83.42;97340.41;29395;225;63009;-63
2022/12/20 02:35:49;;;;;;;0.70;0.70;;;;;;;3.68;83.60;97339.34;29395;213;63004;-58
2022/12/20 02:36:21;;;;;;;0.60;0.60;;;;;;;3.67;83.36;97333.16;29395;218;63008;-61
2022/12/20 02:36:52;;;;;;;1.42;1.42;;;;;;;3.70;83.28;97342.63;29395;203;63005;-60
2022/12/20 02:37:23;;;;;;;0.60;0.60;;;;;;;3.70;83.59;97337.25;29395;238;63009;-62
2022/12/20 02:37:58;;;;;;;0.82;0.82;;;;;;;3.73;83.47;97335.97;29395;204;63005;-62
2022/12/20 02:38:36;;;;;;;0.70;0.70;;;;;;;3.72;83.00;97343.19;29395;202;63009;-62
2022/12/20 02:39:14;;;;;;;1.20;1.20;;;;;;;3.68;83.10;97344.72;29395;203;63005;-59
2022/12/20 02:39:47;;;;;;;0.80;0.80;;;;;;;3.65;83.24;97339.81;29394;217;64013;-59
2022/12/20 02:40:27;;;;;;;0.60;0.60;;;;;;;3.67;83.34;97338.53;29395;196;63005;-58
2022/12/20 02:41:10;;;;;;;0.70;0.70;;;;;;;3.68;83.08;97336.66;29479;362;125013;-60
2022/12/20 02:41:50;;;;;;;0.65;0.65;;;;;;;3.69;83.16;97335.63;29395;209;63004;-58
2022/12/20 02:42:24;;;;;;;0.60;0.60;;;;;;;3.68;83.12;97328.63;29395;223;63009;-63
2022/12/20 02:42:59;;;;;;;0.62;0.62;;;;;;;3.68;83.54;97339.34;29395;264;63004;-61
2022/12/20 02:45:20;;;;;;;0.60;0.60;;;;;;;3.63;83.07;97345.44;29394;237;64014;-59
2022/12/20 02:45:53;;;;;;;1.00;1.00;;;;;;;3.64;83.80;97343.56;29395;208;63005;-59
2022/12/20 02:46:26;;;;;;;0.60;0.60;;;;;;;3.65;83.30;97337.12;29395;239;63009;-61
2022/12/20 02:47:00;;;;;;;0.70;0.70;;;;;;;3.65;83.61;97329.91;29395;203;63014;-62
2022/12/20 02:47:55;;;;;;;0.60;0.60;;;;;;;3.66;83.37;97334.22;29395;203;63009;-60
2022/12/20 02:48:31;;;;;;;4.07;3.97;;;;;;;3.62;83.12;97342.97;29395;232;63016;-61
2022/12/20 02:49:10;;;;;;;0.70;0.70;;;;;;;3.57;83.44;97337.50;29395;222;63009;-61
2022/12/20 02:49:43;;;;;;;0.60;0.60;;;;;;;3.55;83.84;97340.44;29395;395;63004;-73
2022/12/20 02:50:22;;;;;;;0.60;0.60;;;;;;;3.55;83.75;97340.44;29395;218;63008;-61
2022/12/20 02:50:58;;;;;;;0.60;0.60;;;;;;;3.58;84.06;97339.13;29394;229;64008;-60
2022/12/20 02:51:31;;;;;;;0.60;0.60;;;;;;;3.61;83.76;97339.47;29395;208;63024;-62
2022/12/20 02:52:04;;;;;;;2.58;2.45;;;;;;;3.67;83.79;97338.53;29395;199;63005;-59
2022/12/20 02:52:36;;;;;;;0.60;0.60;;;;;;;3.72;83.37;97335.16;29395;243;63009;-61
2022/12/20 02:53:09;;;;;;;0.60;0.60;;;;;;;3.74;82.82;97333.03;29394;197;64009;-60
2022/12/20 02:53:42;;;;;;;1.40;1.40;;;;;;;3.74;83.23;97330.34;29395;236;63009;-62
2022/12/20 02:54:20;;;;;;;0.80;0.80;;;;;;;3.74;83.08;97324.16;29395;236;63005;-61
2022/12/20 02:54:54;;;;;;;1.08;1.08;;;;;;;3.77;83.04;97313.78;29395;248;63009;-61